createdAt,value
2022-09-12T00:02:23.325Z,17.38
2022-09-12T00:04:49.828Z,17.53
2022-09-12T00:07:16.699Z,17.61
2022-09-12T00:09:43.491Z,17.61
2022-09-12T00:12:09.970Z,17.63
2022-09-12T00:14:36.403Z,17.59
2022-09-12T00:17:02.877Z,17.63
2022-09-12T00:19:29.750Z,17.63
2022-09-12T00:21:56.160Z,17.59
2022-09-12T00:24:22.762Z,17.62
2022-09-12T00:26:49.213Z,17.76
2022-09-12T00:29:16.658Z,17.60
2022-09-12T00:32:04.888Z,17.87
2022-09-12T00:34:56.483Z,17.87
2022-09-12T00:37:22.934Z,18.00
2022-09-12T00:39:49.421Z,18.01
2022-09-12T00:42:15.853Z,17.74
2022-09-12T00:44:43.912Z,17.63
2022-09-12T00:47:18.181Z,17.61
2022-09-12T00:50:08.655Z,17.83
2022-09-12T00:52:43.945Z,18.01
2022-09-12T00:55:16.841Z,17.81
2022-09-12T00:58:01.363Z,17.60
2022-09-12T01:00:28.497Z,17.90
2022-09-12T01:03:03.035Z,17.86
2022-09-12T01:06:20.542Z,17.75
2022-09-12T01:09:27.780Z,17.93
2022-09-12T01:11:55.075Z,17.66
2022-09-12T01:14:21.643Z,17.70
2022-09-12T01:16:50.008Z,17.65
2022-09-12T01:19:37.664Z,17.78
2022-09-12T01:22:19.685Z,17.70
2022-09-12T01:25:12.625Z,17.62
2022-09-12T01:27:46.954Z,17.46
2022-09-12T01:30:24.298Z,17.57
2022-09-12T01:33:02.994Z,17.69
2022-09-12T01:35:37.290Z,17.52
2022-09-12T01:38:03.663Z,17.56
2022-09-12T01:41:10.431Z,17.63
2022-09-12T01:44:06.786Z,17.72
2022-09-12T01:46:33.941Z,17.18
2022-09-12T01:49:02.580Z,17.06
2022-09-12T01:51:35.913Z,17.42
2022-09-12T01:54:07.878Z,17.67
2022-09-12T01:56:36.020Z,17.59
2022-09-12T01:59:21.978Z,17.45
2022-09-12T02:02:09.798Z,17.42
2022-09-12T02:04:41.384Z,17.32
2022-09-12T02:07:22.763Z,17.59
2022-09-12T02:10:00.732Z,17.71
2022-09-12T02:12:30.046Z,17.45
2022-09-12T02:15:40.326Z,17.56
2022-09-12T02:18:27.333Z,17.59
2022-09-12T02:20:54.450Z,17.21
2022-09-12T02:23:23.063Z,17.41
2022-09-12T02:25:52.701Z,17.47
2022-09-12T02:28:23.343Z,17.38
2022-09-12T02:30:54.240Z,17.21
2022-09-12T02:33:39.609Z,17.05
2022-09-12T02:36:22.013Z,17.07
2022-09-12T02:38:48.778Z,16.95
2022-09-12T02:41:17.565Z,17.28
2022-09-12T02:43:44.026Z,17.25
2022-09-12T02:46:13.260Z,16.97
2022-09-12T02:48:51.706Z,16.96
2022-09-12T02:51:38.408Z,17.11
2022-09-12T02:54:25.096Z,16.95
2022-09-12T02:56:51.603Z,17.14
2022-09-12T02:59:19.358Z,16.96
2022-09-12T03:02:04.277Z,16.79
2022-09-12T03:04:37.036Z,16.89
2022-09-12T03:07:03.434Z,16.72
2022-09-12T03:09:55.115Z,16.75
2022-09-12T03:12:40.430Z,17.08
2022-09-12T03:15:10.847Z,17.07
2022-09-12T03:17:46.362Z,17.34
2022-09-12T03:20:21.951Z,17.20
2022-09-12T03:22:51.110Z,17.21
2022-09-12T03:28:39.185Z,17.56
2022-09-12T03:31:15.930Z,17.63
2022-09-12T03:33:42.371Z,17.74
2022-09-12T03:36:17.101Z,17.84
2022-09-12T03:38:43.514Z,17.89
2022-09-12T03:41:09.912Z,17.68
2022-09-12T03:43:41.758Z,17.77
2022-09-12T03:46:08.312Z,17.40
2022-09-12T03:48:34.924Z,17.42
2022-09-12T03:51:06.093Z,17.36
2022-09-12T03:53:32.859Z,17.33
2022-09-12T03:55:59.454Z,17.35
2022-09-12T04:01:44.193Z,17.47
2022-09-12T04:04:11.329Z,17.73
2022-09-12T04:06:37.761Z,17.89
2022-09-12T04:09:04.232Z,17.77
2022-09-12T04:11:32.240Z,17.97
2022-09-12T04:13:58.658Z,18.07
2022-09-12T04:16:25.262Z,18.16
2022-09-12T04:18:57.571Z,18.13
2022-09-12T04:21:24.087Z,18.12
2022-09-12T04:23:50.536Z,18.11
2022-09-12T04:26:17.881Z,17.92
2022-09-12T04:28:44.804Z,18.06
2022-09-12T04:31:13.171Z,17.86
2022-09-12T04:34:10.690Z,17.86
2022-09-12T04:36:57.828Z,17.76
2022-09-12T04:39:24.417Z,17.58
2022-09-12T04:41:50.858Z,17.47
2022-09-12T04:44:17.507Z,17.50
2022-09-12T04:46:44.944Z,17.36
2022-09-12T04:49:12.142Z,17.44
2022-09-12T04:51:52.495Z,17.32
2022-09-12T04:54:19.408Z,17.52
2022-09-12T04:56:46.760Z,17.54
2022-09-12T04:59:14.545Z,17.61
2022-09-12T05:01:41.474Z,17.51
2022-09-12T05:04:09.398Z,17.50
2022-09-12T05:06:36.889Z,17.61
2022-09-12T05:09:43.788Z,17.72
2022-09-12T05:12:22.440Z,17.93
2022-09-12T05:14:48.840Z,17.84
2022-09-12T05:17:15.283Z,17.99
2022-09-12T05:19:41.732Z,17.96
2022-09-12T05:22:08.214Z,18.15
2022-09-12T05:24:35.290Z,18.21
2022-09-12T05:27:04.738Z,18.33
2022-09-12T05:29:31.592Z,18.25
2022-09-12T05:31:58.004Z,18.03
2022-09-12T05:34:24.538Z,18.11
2022-09-12T05:36:51.002Z,17.88
2022-09-12T05:39:18.581Z,18.10
2022-09-12T05:41:45.012Z,18.27
2022-09-12T05:44:12.604Z,18.27
2022-09-12T05:46:40.109Z,18.52
2022-09-12T05:49:08.085Z,18.27
2022-09-12T05:51:38.029Z,18.33
2022-09-12T05:54:05.184Z,18.50
2022-09-12T05:56:33.235Z,18.37
2022-09-12T05:59:01.068Z,18.43
2022-09-12T06:01:28.342Z,18.33
2022-09-12T06:03:55.694Z,18.43
2022-09-12T06:06:23.880Z,18.27
2022-09-12T06:08:52.188Z,18.44
2022-09-12T06:11:20.380Z,18.66
2022-09-12T06:13:47.192Z,18.39
2022-09-12T06:16:15.002Z,18.20
2022-09-12T06:18:42.505Z,18.24
2022-09-12T06:21:10.233Z,18.90
2022-09-12T06:23:37.469Z,18.60
2022-09-12T06:26:05.171Z,19.01
2022-09-12T06:28:32.592Z,19.08
2022-09-12T06:31:09.671Z,19.31
2022-09-12T06:33:37.527Z,19.24
2022-09-12T06:36:08.970Z,19.24
2022-09-12T06:38:38.403Z,19.12
2022-09-12T06:41:05.365Z,19.04
2022-09-12T06:43:32.409Z,18.97
2022-09-12T06:45:59.296Z,19.20
2022-09-12T06:48:25.762Z,18.94
2022-09-12T06:50:57.674Z,19.17
2022-09-12T06:53:24.645Z,18.80
2022-09-12T06:56:01.214Z,19.03
2022-09-12T06:58:28.460Z,19.11
2022-09-12T07:01:21.450Z,19.13
2022-09-12T07:03:52.342Z,19.18
2022-09-12T07:06:19.786Z,19.24
2022-09-12T07:08:46.746Z,19.22
2022-09-12T07:11:14.760Z,19.46
2022-09-12T07:13:41.947Z,19.03
2022-09-12T07:16:08.739Z,19.22
2022-09-12T07:18:35.248Z,19.58
2022-09-12T07:21:02.480Z,19.69
2022-09-12T07:23:30.785Z,19.98
2022-09-12T07:25:58.009Z,20.06
2022-09-12T07:28:25.008Z,20.21
2022-09-12T07:30:53.830Z,20.35
2022-09-12T07:33:21.016Z,20.35
2022-09-12T07:35:47.818Z,20.39
2022-09-12T07:38:14.340Z,20.03
2022-09-12T07:40:40.814Z,20.03
2022-09-12T07:43:07.334Z,20.15
2022-09-12T07:45:33.973Z,20.15
2022-09-12T07:48:01.178Z,20.31
2022-09-12T07:50:27.804Z,20.19
2022-09-12T07:52:55.297Z,20.62
2022-09-12T07:55:21.939Z,20.58
2022-09-12T07:57:51.956Z,20.96
2022-09-12T08:00:18.876Z,21.19
2022-09-12T08:02:45.396Z,21.15
2022-09-12T08:05:11.863Z,21.05
2022-09-12T08:07:38.381Z,21.38
2022-09-12T08:10:05.855Z,21.64
2022-09-12T08:12:32.314Z,21.70
2022-09-12T08:14:58.699Z,21.64
2022-09-12T08:17:25.107Z,21.67
2022-09-12T08:19:51.515Z,21.64
2022-09-12T08:22:18.758Z,21.74
2022-09-12T08:24:45.194Z,21.96
2022-09-12T08:27:11.669Z,22.03
2022-09-12T08:29:38.070Z,22.10
2022-09-12T08:32:04.490Z,21.97
2022-09-12T08:34:30.948Z,22.00
2022-09-12T08:36:57.718Z,22.02
2022-09-12T08:39:24.846Z,22.44
2022-09-12T08:41:58.220Z,22.07
2022-09-12T08:44:43.282Z,22.19
2022-09-12T08:47:29.196Z,22.08
2022-09-12T08:50:11.680Z,22.36
2022-09-12T08:52:41.422Z,22.42
2022-09-12T08:55:22.601Z,22.15
2022-09-12T08:57:49.038Z,22.40
2022-09-12T09:00:16.657Z,22.66
2022-09-12T09:03:11.099Z,22.73
2022-09-12T09:05:57.403Z,22.60
2022-09-12T09:08:23.791Z,22.83
2022-09-12T09:10:56.380Z,22.51
2022-09-12T09:14:05.652Z,22.80
2022-09-12T09:16:35.047Z,22.85
2022-09-12T09:19:04.544Z,22.83
2022-09-12T09:21:38.179Z,22.85
2022-09-12T09:24:06.509Z,22.82
2022-09-12T09:26:59.426Z,22.97
2022-09-12T09:29:29.803Z,22.80
2022-09-12T09:31:58.760Z,23.00
2022-09-12T09:34:26.373Z,23.35
2022-09-12T09:36:59.938Z,23.06
2022-09-12T09:39:26.479Z,23.01
2022-09-12T09:42:11.768Z,23.22
2022-09-12T09:44:38.533Z,23.47
2022-09-12T09:47:05.362Z,23.05
2022-09-12T09:49:33.494Z,23.43
2022-09-12T09:52:03.672Z,23.18
2022-09-12T09:54:35.469Z,23.39
2022-09-12T09:57:02.048Z,23.32
2022-09-12T09:59:30.031Z,23.17
2022-09-12T10:02:04.096Z,22.63
2022-09-12T10:04:32.547Z,22.68
2022-09-12T10:07:00.416Z,22.87
2022-09-12T10:09:28.337Z,22.75
2022-09-12T10:11:55.891Z,22.88
2022-09-12T10:14:42.870Z,22.60
2022-09-12T10:17:33.914Z,22.83
2022-09-12T10:22:48.502Z,22.93
2022-09-12T10:25:18.410Z,23.14
2022-09-12T10:27:44.833Z,23.05
2022-09-12T10:30:18.927Z,22.71
2022-09-12T10:32:47.179Z,23.02
2022-09-12T10:35:21.667Z,23.13
2022-09-12T10:37:55.826Z,23.17
2022-09-12T10:40:24.759Z,22.94
2022-09-12T10:42:52.629Z,23.01
2022-09-12T10:45:22.137Z,22.76
2022-09-12T10:47:48.726Z,23.12
2022-09-12T10:50:26.677Z,23.12
2022-09-12T10:53:13.541Z,23.41
2022-09-12T10:55:42.046Z,23.24
2022-09-12T10:58:17.700Z,23.05
2022-09-12T11:00:47.560Z,23.16
2022-09-12T11:03:24.867Z,23.40
2022-09-12T11:05:53.062Z,23.47
2022-09-12T11:08:19.547Z,23.15
2022-09-12T11:11:24.158Z,23.11
2022-09-12T11:13:53.715Z,23.06
2022-09-12T11:16:43.365Z,23.01
2022-09-12T11:19:12.612Z,22.97
2022-09-12T11:21:54.340Z,22.94
2022-09-12T11:24:20.710Z,22.53
2022-09-12T11:30:37.208Z,23.00
2022-09-12T11:33:09.511Z,23.01
2022-09-12T11:35:42.418Z,22.73
2022-09-12T11:38:08.923Z,23.10
2022-09-12T11:40:50.307Z,23.05
2022-09-12T11:43:23.925Z,23.11
2022-09-12T11:45:51.089Z,23.20
2022-09-12T11:48:30.434Z,23.22
2022-09-12T11:50:58.120Z,23.05
2022-09-12T11:53:28.971Z,23.09
2022-09-12T11:55:55.952Z,23.08
2022-09-12T11:58:24.975Z,23.17
2022-09-12T12:00:54.018Z,23.30
2022-09-12T12:03:23.707Z,23.18
2022-09-12T12:05:55.414Z,23.41
2022-09-12T12:08:27.878Z,23.66
2022-09-12T12:10:56.435Z,23.54
2022-09-12T12:13:40.261Z,23.09
2022-09-12T12:16:08.445Z,23.13
2022-09-12T12:18:37.678Z,22.61
2022-09-12T12:21:36.611Z,22.79
2022-09-12T12:24:08.825Z,22.65
2022-09-12T12:26:40.825Z,23.44
2022-09-12T12:29:35.174Z,23.41
2022-09-12T12:32:04.704Z,22.77
2022-09-12T12:34:31.529Z,22.99
2022-09-12T12:37:05.534Z,23.36
2022-09-12T12:39:33.743Z,23.70
2022-09-12T12:42:00.886Z,23.64
2022-09-12T12:44:42.697Z,23.72
2022-09-12T12:47:19.270Z,23.52
2022-09-12T12:50:04.153Z,23.02
2022-09-12T12:52:32.422Z,23.21
2022-09-12T12:55:00.636Z,23.10
2022-09-12T12:57:34.422Z,23.22
2022-09-12T13:00:05.145Z,23.01
2022-09-12T13:02:33.908Z,23.40
2022-09-12T13:05:02.887Z,23.34
2022-09-12T13:07:31.249Z,23.33
2022-09-12T13:09:58.084Z,23.03
2022-09-12T13:12:27.280Z,23.24
2022-09-12T13:14:58.377Z,23.52
2022-09-12T13:17:26.442Z,23.67
2022-09-12T13:20:27.390Z,23.79
2022-09-12T13:22:54.686Z,23.73
2022-09-12T13:25:31.942Z,24.21
2022-09-12T13:28:03.967Z,24.21
2022-09-12T13:30:31.806Z,24.36
2022-09-12T13:33:03.972Z,24.38
2022-09-12T13:35:42.305Z,24.38
2022-09-12T13:38:26.074Z,24.47
2022-09-12T13:41:11.585Z,24.19
2022-09-12T13:43:41.863Z,24.29
2022-09-12T13:46:09.771Z,24.20
2022-09-12T13:48:36.422Z,24.22
2022-09-12T13:51:03.984Z,24.52
2022-09-12T13:53:32.642Z,24.24
2022-09-12T13:56:00.008Z,23.96
2022-09-12T13:58:34.572Z,24.09
2022-09-12T14:01:10.138Z,23.98
2022-09-12T14:04:04.664Z,24.27
2022-09-12T14:06:43.784Z,24.27
2022-09-12T14:09:25.002Z,24.03
2022-09-12T14:11:52.126Z,24.03
2022-09-12T14:14:20.759Z,23.78
2022-09-12T14:16:47.353Z,24.08
2022-09-12T14:19:14.221Z,23.97
2022-09-12T14:21:40.896Z,23.99
2022-09-12T14:24:10.108Z,23.99
2022-09-12T14:26:37.635Z,23.39
2022-09-12T14:29:07.577Z,23.48
2022-09-12T14:31:37.748Z,23.60
2022-09-12T14:34:10.971Z,23.34
2022-09-12T14:36:41.302Z,23.47
2022-09-12T14:39:16.879Z,23.43
2022-09-12T14:41:43.826Z,23.31
2022-09-12T14:44:20.609Z,23.46
2022-09-12T14:46:47.640Z,23.15
2022-09-12T14:49:31.331Z,23.42
2022-09-12T14:52:00.006Z,23.17
2022-09-12T14:54:29.731Z,22.82
2022-09-12T14:56:57.867Z,22.75
2022-09-12T14:59:30.320Z,22.87
2022-09-12T15:02:12.117Z,22.95
2022-09-12T15:04:42.442Z,22.94
2022-09-12T15:07:58.754Z,23.24
2022-09-12T15:10:34.196Z,23.49
2022-09-12T15:13:10.884Z,23.51
2022-09-12T15:15:41.417Z,23.02
2022-09-12T15:18:08.359Z,22.91
2022-09-12T15:20:39.007Z,23.26
2022-09-12T15:23:08.988Z,23.24
2022-09-12T15:25:35.420Z,23.31
2022-09-12T15:28:01.988Z,22.94
2022-09-12T15:30:31.365Z,22.92
2022-09-12T15:33:00.055Z,22.53
2022-09-12T15:35:26.921Z,22.88
2022-09-12T15:37:53.321Z,22.75
2022-09-12T15:40:20.145Z,22.65
2022-09-12T15:42:46.675Z,22.79
2022-09-12T15:45:17.462Z,22.79
2022-09-12T15:47:43.916Z,22.81
2022-09-12T15:50:11.097Z,22.69
2022-09-12T15:52:37.538Z,23.07
2022-09-12T15:55:04.844Z,23.14
2022-09-12T15:57:31.260Z,22.91
2022-09-12T15:59:57.642Z,22.95
2022-09-12T16:02:24.096Z,22.99
2022-09-12T16:04:54.598Z,22.63
2022-09-12T16:07:21.648Z,22.39
2022-09-12T16:09:48.292Z,22.71
2022-09-12T16:12:14.727Z,22.48
2022-09-12T16:14:41.186Z,22.70
2022-09-12T16:17:07.842Z,22.89
2022-09-12T16:19:34.269Z,23.07
2022-09-12T16:22:00.782Z,22.94
2022-09-12T16:24:27.426Z,23.03
2022-09-12T16:26:55.905Z,23.13
2022-09-12T16:29:25.623Z,23.05
2022-09-12T16:31:52.055Z,23.17
2022-09-12T16:34:18.460Z,23.19
2022-09-12T16:36:45.306Z,22.90
2022-09-12T16:39:11.696Z,22.68
2022-09-12T16:41:38.165Z,23.01
2022-09-12T16:44:04.620Z,23.02
2022-09-12T16:46:31.179Z,22.85
2022-09-12T16:48:58.252Z,22.90
2022-09-12T16:51:26.607Z,22.86
2022-09-12T16:53:54.089Z,22.94
2022-09-12T16:56:20.808Z,22.92
2022-09-12T16:58:48.189Z,22.90
2022-09-12T17:01:16.352Z,22.97
2022-09-12T17:03:42.913Z,22.99
2022-09-12T17:06:10.916Z,22.99
2022-09-12T17:08:38.499Z,22.98
2022-09-12T17:11:06.204Z,22.90
2022-09-12T17:13:52.878Z,22.78
2022-09-12T17:16:19.653Z,22.83
2022-09-12T17:18:46.814Z,22.64
2022-09-12T17:21:13.895Z,22.77
2022-09-12T17:23:40.661Z,22.68
2022-09-12T17:26:08.861Z,22.66
2022-09-12T17:28:35.545Z,22.56
2022-09-12T17:31:17.450Z,22.62
2022-09-12T17:33:44.302Z,22.61
2022-09-12T17:36:12.125Z,22.31
2022-09-12T17:38:39.766Z,22.44
2022-09-12T17:41:11.367Z,22.31
2022-09-12T17:43:40.806Z,22.25
2022-09-12T17:46:26.802Z,22.33
2022-09-12T17:52:17.499Z,22.41
2022-09-12T17:54:43.925Z,22.12
2022-09-12T17:57:10.968Z,21.97
2022-09-12T17:59:37.374Z,21.95
2022-09-12T18:02:13.190Z,21.85
2022-09-12T18:04:42.793Z,21.85
2022-09-12T18:07:09.247Z,21.95
2022-09-12T18:09:36.426Z,21.84
2022-09-12T18:12:02.859Z,21.79
2022-09-12T18:14:29.381Z,21.74
2022-09-12T18:16:57.200Z,21.82
2022-09-12T18:19:24.117Z,21.84
2022-09-12T18:21:50.551Z,21.84
2022-09-12T18:24:17.762Z,21.72
2022-09-12T18:26:44.903Z,21.60
2022-09-12T18:29:12.357Z,21.53
2022-09-12T18:31:38.843Z,21.49
2022-09-12T18:34:06.220Z,21.56
2022-09-12T18:36:32.825Z,21.40
2022-09-12T18:38:59.863Z,21.26
2022-09-12T18:41:26.557Z,21.30
2022-09-12T18:43:56.856Z,21.28
2022-09-12T18:46:23.908Z,21.07
2022-09-12T18:48:50.564Z,21.24
2022-09-12T18:51:18.549Z,21.16
2022-09-12T18:54:06.317Z,20.84
2022-09-12T18:56:34.435Z,20.83
2022-09-12T18:59:01.834Z,21.05
2022-09-12T19:01:29.457Z,21.11
2022-09-12T19:03:56.198Z,21.13
2022-09-12T19:06:23.854Z,21.16
2022-09-12T19:08:50.941Z,21.17
2022-09-12T19:11:17.449Z,21.16
2022-09-12T19:13:45.806Z,21.15
2022-09-12T19:16:17.032Z,21.11
2022-09-12T19:18:43.704Z,21.07
2022-09-12T19:21:17.638Z,21.04
2022-09-12T19:23:44.506Z,20.96
2022-09-12T19:26:12.411Z,20.85
2022-09-12T19:28:38.884Z,20.82
2022-09-12T19:31:09.360Z,20.72
2022-09-12T19:33:36.863Z,20.71
2022-09-12T19:36:04.623Z,20.69
2022-09-12T19:38:31.383Z,20.67
2022-09-12T19:40:58.882Z,20.64
2022-09-12T19:43:25.379Z,20.62
2022-09-12T19:45:52.229Z,20.56
2022-09-12T19:48:19.658Z,20.54
2022-09-12T19:50:46.115Z,20.49
2022-09-12T19:53:12.524Z,20.46
2022-09-12T19:55:39.117Z,20.36
2022-09-12T19:58:06.142Z,20.29
2022-09-12T20:00:34.035Z,20.17
2022-09-12T20:03:04.121Z,20.13
2022-09-12T20:05:32.007Z,19.98
2022-09-12T20:07:58.463Z,19.84
2022-09-12T20:10:25.108Z,19.88
2022-09-12T20:12:53.934Z,19.77
2022-09-12T20:15:20.571Z,19.79
2022-09-12T20:17:47.135Z,19.63
2022-09-12T20:20:14.175Z,19.47
2022-09-12T20:22:40.591Z,19.46
2022-09-12T20:25:07.297Z,19.19
2022-09-12T20:27:33.763Z,19.29
2022-09-12T20:30:00.368Z,19.46
2022-09-12T20:32:28.918Z,19.57
2022-09-12T20:34:56.411Z,19.59
2022-09-12T20:37:23.268Z,19.58
2022-09-12T20:39:50.932Z,19.28
2022-09-12T20:42:17.579Z,19.41
2022-09-12T20:44:44.024Z,19.30
2022-09-12T20:47:10.654Z,19.29
2022-09-12T20:49:37.080Z,18.97
2022-09-12T20:52:12.689Z,19.12
2022-09-12T20:54:39.140Z,19.23
2022-09-12T20:57:05.592Z,19.34
2022-09-12T20:59:32.315Z,19.25
2022-09-12T21:01:58.866Z,19.20
2022-09-12T21:04:25.396Z,19.29
2022-09-12T21:07:17.709Z,19.21
2022-09-12T21:10:04.511Z,19.05
2022-09-12T21:12:30.913Z,18.75
2022-09-12T21:14:57.337Z,18.69
2022-09-12T21:17:23.799Z,18.80
2022-09-12T21:19:50.205Z,18.98
2022-09-12T21:22:16.623Z,19.07
2022-09-12T21:24:43.042Z,19.09
2022-09-12T21:27:09.434Z,19.20
2022-09-12T21:29:35.828Z,19.12
2022-09-12T21:32:02.534Z,18.91
2022-09-12T21:34:29.009Z,18.76
2022-09-12T21:36:55.411Z,18.88
2022-09-12T21:39:21.840Z,18.71
2022-09-12T21:41:57.481Z,18.78
2022-09-12T21:44:23.887Z,18.57
2022-09-12T21:46:50.329Z,18.69
2022-09-12T21:49:16.809Z,18.69
2022-09-12T21:51:43.285Z,18.47
2022-09-12T21:54:09.742Z,18.34
2022-09-12T22:00:17.922Z,18.27
2022-09-12T22:02:44.394Z,18.17
2022-09-12T22:05:10.818Z,17.92
2022-09-12T22:07:37.530Z,18.12
2022-09-12T22:10:04.493Z,18.09
2022-09-12T22:12:31.580Z,18.12
2022-09-12T22:14:57.998Z,17.99
2022-09-12T22:17:24.408Z,18.12
2022-09-12T22:19:50.831Z,18.25
2022-09-12T22:22:35.701Z,18.31
2022-09-12T22:25:02.275Z,18.37
2022-09-12T22:27:28.664Z,18.39
2022-09-12T22:29:55.051Z,18.40
2022-09-12T22:32:21.513Z,18.24
2022-09-12T22:34:47.968Z,18.07
2022-09-12T22:37:14.429Z,18.08
2022-09-12T22:39:40.941Z,17.76
2022-09-12T22:42:07.755Z,17.86
2022-09-12T22:44:49.528Z,17.73
2022-09-12T22:47:15.959Z,17.89
2022-09-12T22:49:42.354Z,17.48
2022-09-12T22:52:08.774Z,17.58
2022-09-12T22:54:35.227Z,17.40
2022-09-12T22:57:01.907Z,17.64
2022-09-12T22:59:47.318Z,17.60
2022-09-12T23:03:03.750Z,17.65
2022-09-12T23:05:39.411Z,17.45
2022-09-12T23:08:05.826Z,16.80
2022-09-12T23:10:34.799Z,17.04
2022-09-12T23:13:01.234Z,16.78
2022-09-12T23:15:28.253Z,16.99
2022-09-12T23:17:54.689Z,17.06
2022-09-12T23:20:30.456Z,17.04
2022-09-12T23:22:56.891Z,16.73
2022-09-12T23:25:23.696Z,16.97
2022-09-12T23:27:51.110Z,16.65
2022-09-12T23:30:21.353Z,16.62
2022-09-12T23:32:48.832Z,16.55
2022-09-12T23:35:50.000Z,16.54
2022-09-12T23:38:34.855Z,16.63
2022-09-12T23:41:02.604Z,16.61
2022-09-12T23:43:29.084Z,16.14
2022-09-12T23:45:55.560Z,15.96
2022-09-12T23:48:22.005Z,16.29
2022-09-12T23:50:48.571Z,16.41
2022-09-12T23:53:16.135Z,16.35
2022-09-12T23:55:43.017Z,16.14
2022-09-12T23:58:09.429Z,16.30
